Time;durP1;ratioP1;P1;durP2;ratioP2;P2;SDS_P1;SDS_P2;PMS_P1;PMS_P2;Temp;Humidity;BMP_temperature;BMP_pressure;BME280_temperature;BME280_humidity;BME280_pressure;Samples;Min_cycle;Max_cycle;Signal;HPM_P1;HPM_P2
2023/08/04 00:04:52;;;;;;;3.00;1.10;;;;;;;15.58;73.30;98673.60;436138;1253;140540;-67
2023/08/04 00:14:58;;;;;;;2.80;1.30;;;;;;;15.52;73.85;98679.84;436774;1253;140213;-66
2023/08/04 00:25:05;;;;;;;1.60;1.20;;;;;;;15.55;74.31;98682.52;437163;1251;138956;-67
2023/08/04 00:35:11;;;;;;;2.80;1.20;;;;;;;15.57;74.53;98680.94;436413;1253;139117;-67
2023/08/04 00:45:17;;;;;;;4.50;2.00;;;;;;;15.57;74.91;98691.63;436036;1250;139718;-67
2023/08/04 00:55:24;;;;;;;3.20;1.80;;;;;;;15.61;75.05;98683.27;436184;1253;139526;-66
2023/08/04 01:05:37;;;;;;;3.60;1.00;;;;;;;15.48;75.35;98695.91;436749;1253;139824;-66
2023/08/04 01:15:45;;;;;;;2.70;1.50;;;;;;;15.30;76.00;98691.70;436162;1253;138968;-66
2023/08/04 01:25:51;;;;;;;3.40;1.20;;;;;;;15.12;76.63;98700.98;436476;1253;139743;-67
2023/08/04 01:35:57;;;;;;;2.20;1.00;;;;;;;14.96;77.28;98696.34;436932;1253;139201;-67
2023/08/04 01:46:02;;;;;;;4.00;1.60;;;;;;;14.84;78.08;98699.09;436578;1253;139390;-68
2023/08/04 01:56:08;;;;;;;3.60;1.60;;;;;;;14.83;78.65;98712.21;436259;1250;139471;-66
2023/08/04 02:06:15;;;;;;;2.30;1.50;;;;;;;14.87;79.07;98717.45;436197;1251;139109;-66
2023/08/04 02:16:21;;;;;;;2.90;2.10;;;;;;;14.93;79.37;98718.32;436606;1253;139488;-66
2023/08/04 02:26:27;;;;;;;2.10;1.20;;;;;;;14.97;79.71;98719.33;436434;1250;139786;-66
2023/08/04 02:36:33;;;;;;;3.10;1.80;;;;;;;14.96;79.89;98738.80;436176;1253;140382;-67
2023/08/04 02:46:39;;;;;;;2.40;1.30;;;;;;;14.94;80.24;98767.52;436256;1250;141464;-66
2023/08/04 02:56:45;;;;;;;2.10;1.80;;;;;;;14.92;80.50;98784.02;436135;1253;140086;-66
2023/08/04 03:06:51;;;;;;;1.90;1.60;;;;;;;14.84;80.68;98788.93;436281;1253;139657;-67
2023/08/04 03:16:56;;;;;;;4.10;1.20;;;;;;;14.77;80.99;98778.14;436123;1253;139203;-66
2023/08/04 03:27:02;;;;;;;6.00;1.90;;;;;;;14.81;81.40;98778.14;436323;1251;139894;-66
2023/08/04 03:37:08;;;;;;;4.60;1.60;;;;;;;14.91;81.67;98789.29;436300;1251;139841;-67
2023/08/04 03:47:14;;;;;;;3.90;1.50;;;;;;;15.09;81.74;98795.55;436077;1253;140004;-67
2023/08/04 03:57:20;;;;;;;2.60;1.50;;;;;;;15.36;81.63;98797.27;436266;1250;139819;-66
2023/08/04 04:07:26;;;;;;;3.70;1.60;;;;;;;15.76;81.22;98820.20;436118;1252;139967;-65
2023/08/04 04:17:32;;;;;;;5.10;1.10;;;;;;;16.13;80.46;98825.60;436199;1253;139612;-66
2023/08/04 04:27:37;;;;;;;6.30;1.80;;;;;;;16.93;79.72;98840.03;436156;1253;140660;-65
2023/08/04 04:37:44;;;;;;;2.50;1.30;;;;;;;20.38;77.03;98835.42;436260;1253;139505;-66
2023/08/04 04:47:50;;;;;;;6.70;2.10;;;;;;;21.39;68.77;98832.23;436317;1251;139365;-66
2023/08/04 04:57:56;;;;;;;20.90;9.70;;;;;;;20.23;68.69;98832.02;437252;1250;139569;-68
2023/08/04 05:08:02;;;;;;;2.70;1.60;;;;;;;19.75;68.95;98847.23;436514;1253;139507;-67
2023/08/04 05:18:07;;;;;;;3.70;1.90;;;;;;;19.18;69.21;98851.80;436738;1253;139713;-67
2023/08/04 05:28:24;;;;;;;2.20;1.30;;;;;;;18.96;69.97;98858.31;436167;1251;141386;-66
2023/08/04 05:38:31;;;;;;;2.80;1.30;;;;;;;18.97;70.21;98854.40;436336;1250;140992;-68
2023/08/04 05:48:37;;;;;;;5.10;1.60;;;;;;;19.09;70.00;98867.83;436208;1253;141345;-64
2023/08/04 05:58:43;;;;;;;2.90;1.40;;;;;;;20.03;69.63;98857.97;436525;1253;141952;-64
2023/08/04 06:08:48;;;;;;;4.20;1.90;;;;;;;21.37;66.94;98867.90;436169;1253;140299;-64
2023/08/04 06:18:56;;;;;;;1.20;0.80;;;;;;;22.45;64.14;98863.27;436676;1249;141279;-68
2023/08/04 06:29:01;;;;;;;6.90;1.40;;;;;;;22.33;62.41;98881.34;436448;1251;139559;-75
2023/08/04 06:39:07;;;;;;;5.90;1.60;;;;;;;21.28;62.55;98899.17;439046;1251;140518;-73
2023/08/04 06:49:13;;;;;;;1.70;0.90;;;;;;;22.57;62.20;98898.65;439134;1251;140213;-68
2023/08/04 06:59:19;;;;;;;1.60;0.60;;;;;;;23.55;60.03;98906.31;437939;1253;140674;-73
2023/08/04 07:09:25;;;;;;;2.50;0.70;;;;;;;24.62;57.79;98909.90;436714;1253;139151;-67
2023/08/04 07:19:31;;;;;;;3.70;1.10;;;;;;;25.95;56.46;98924.30;436162;1251;138717;-69
2023/08/04 07:29:36;;;;;;;6.10;1.00;;;;;;;34.39;48.92;98924.59;439304;1251;138584;-68
2023/08/04 07:39:43;;;;;;;6.40;2.00;;;;;;;35.65;41.00;98933.08;438971;1253;370132;-78
2023/08/04 07:49:49;;;;;;;36.20;4.30;;;;;;;38.58;39.01;98936.70;440775;1251;139717;-78
2023/08/04 07:59:55;;;;;;;3.00;0.90;;;;;;;44.03;32.93;98940.13;442294;1253;139079;-75
2023/08/04 08:10:01;;;;;;;3.60;0.80;;;;;;;47.17;28.74;98941.19;439081;1253;141650;-70
2023/08/04 08:20:10;;;;;;;1.50;0.50;;;;;;;46.07;25.45;98944.00;436987;1253;140030;-63
2023/08/04 08:30:17;;;;;;;0.80;0.50;;;;;;;38.18;27.84;98948.11;437068;1253;138909;-63
2023/08/04 08:40:25;;;;;;;1.50;0.70;;;;;;;33.67;31.20;98960.70;436301;1251;138906;-67
2023/08/04 08:50:33;;;;;;;1.10;0.30;;;;;;;31.76;33.67;98976.88;436351;1251;139282;-66
2023/08/04 09:00:39;;;;;;;1.50;0.70;;;;;;;30.86;34.77;98989.36;436910;1254;139230;-67
2023/08/04 09:10:47;;;;;;;1.80;0.40;;;;;;;30.33;35.66;98986.66;436570;1254;139153;-66
2023/08/04 09:21:00;;;;;;;0.60;0.50;;;;;;;30.03;35.82;98989.59;436466;1251;140182;-66
2023/08/04 09:31:07;;;;;;;1.30;0.50;;;;;;;29.85;36.35;98990.27;437049;1253;138379;-67
2023/08/04 09:41:15;;;;;;;1.40;0.50;;;;;;;29.74;36.49;98992.65;436594;1253;139550;-66
2023/08/04 09:51:21;;;;;;;0.80;0.40;;;;;;;29.95;36.37;98988.05;436329;1251;139973;-67
2023/08/04 10:01:31;;;;;;;1.20;0.50;;;;;;;29.57;36.48;98997.59;436402;1253;139566;-66
2023/08/04 10:11:38;;;;;;;1.10;0.50;;;;;;;29.28;37.04;98992.23;436827;1253;138526;-66
2023/08/04 10:21:44;;;;;;;0.50;0.50;;;;;;;29.52;36.95;98993.20;435944;1252;139074;-67
2023/08/04 10:31:52;;;;;;;1.80;1.10;;;;;;;29.06;37.26;99002.73;436088;1254;139277;-64
2023/08/04 10:42:01;;;;;;;0.90;0.50;;;;;;;29.36;37.14;99003.27;436464;1253;139087;-67
2023/08/04 10:52:07;;;;;;;2.90;0.70;;;;;;;29.53;36.88;99002.14;437130;1253;138812;-73
2023/08/04 11:02:16;;;;;;;1.50;1.20;;;;;;;29.73;36.93;98997.41;438989;1251;138781;-70
2023/08/04 11:12:22;;;;;;;3.40;0.50;;;;;;;30.00;36.50;98993.02;439380;1250;138269;-71
2023/08/04 11:22:28;;;;;;;1.90;0.40;;;;;;;29.49;36.51;99003.04;436528;1251;139039;-67
2023/08/04 11:32:34;;;;;;;0.50;0.40;;;;;;;29.18;36.93;99008.52;436079;1254;138931;-80
2023/08/04 11:42:40;;;;;;;1.20;0.40;;;;;;;28.37;37.43;99005.21;439141;1251;139943;-72
2023/08/04 11:52:49;;;;;;;3.40;0.30;;;;;;;27.99;38.21;98990.55;438925;1251;139371;-69
2023/08/04 12:03:01;;;;;;;0.80;0.30;;;;;;;27.65;38.65;98997.27;436612;1253;138904;-66
2023/08/04 12:13:07;;;;;;;2.30;0.60;;;;;;;27.31;39.33;99002.29;436290;1253;138263;-70
2023/08/04 12:23:16;;;;;;;2.80;0.90;;;;;;;27.15;39.47;99009.80;436773;1251;139841;-74
2023/08/04 12:33:22;;;;;;;1.90;0.60;;;;;;;26.87;39.92;99013.37;439293;1250;138715;-66
2023/08/04 12:43:28;;;;;;;1.20;0.30;;;;;;;26.86;40.25;99012.46;436151;1251;140879;-68
2023/08/04 12:53:34;;;;;;;1.60;0.20;;;;;;;27.03;39.87;98996.92;436208;1253;138648;-69
2023/08/04 13:03:40;;;;;;;1.10;0.30;;;;;;;27.09;40.24;99002.27;436189;1249;140747;-70
2023/08/04 13:13:46;;;;;;;2.60;0.50;;;;;;;27.33;39.89;99010.16;436259;1251;138938;-70
2023/08/04 13:23:52;;;;;;;2.50;0.50;;;;;;;27.29;39.53;99013.84;436271;1251;140297;-68
2023/08/04 13:33:58;;;;;;;0.80;0.60;;;;;;;27.66;39.68;99016.71;436145;1253;139456;-71
2023/08/04 13:44:03;;;;;;;3.50;0.50;;;;;;;27.82;39.15;99016.41;439052;1250;140584;-73
2023/08/04 13:54:09;;;;;;;2.00;0.40;;;;;;;28.20;39.06;99023.46;439217;1250;140455;-70
2023/08/04 14:04:15;;;;;;;2.20;0.30;;;;;;;28.10;38.67;99037.49;437182;1251;140283;-72
2023/08/04 14:14:21;;;;;;;1.10;0.40;;;;;;;27.63;39.14;99055.04;436220;1253;138846;-74
2023/08/04 14:24:27;;;;;;;2.50;0.50;;;;;;;27.63;39.29;99046.34;439136;1249;138803;-77
2023/08/04 14:34:35;;;;;;;1.60;0.40;;;;;;;27.21;39.50;99050.06;439321;1253;139372;-70
2023/08/04 14:44:41;;;;;;;2.50;0.40;;;;;;;26.84;40.24;99062.38;439490;1250;139236;-67
2023/08/04 14:54:49;;;;;;;0.60;0.40;;;;;;;26.83;40.14;99073.65;438113;1250;139127;-69
2023/08/04 15:04:55;;;;;;;0.50;0.50;;;;;;;27.08;39.52;99073.64;439046;1250;138745;-71
2023/08/04 15:15:01;;;;;;;2.20;0.40;;;;;;;26.93;39.51;99073.40;438837;1253;139038;-72
2023/08/04 15:25:08;;;;;;;2.20;0.50;;;;;;;26.82;40.19;99075.79;439208;1249;138348;-69
2023/08/04 15:35:14;;;;;;;6.10;0.80;;;;;;;26.74;39.98;99073.15;437937;1250;139877;-63
2023/08/04 15:45:20;;;;;;;2.90;0.50;;;;;;;26.52;40.36;99070.39;437415;1249;138749;-65
2023/08/04 15:55:26;;;;;;;4.30;0.70;;;;;;;26.16;40.91;99076.59;436694;1253;140272;-66
2023/08/04 16:05:32;;;;;;;0.80;0.30;;;;;;;25.99;41.22;99073.13;436656;1250;138294;-69
2023/08/04 16:15:38;;;;;;;2.80;0.70;;;;;;;26.10;41.56;99067.78;438375;1251;138816;-62
2023/08/04 16:25:44;;;;;;;1.90;0.40;;;;;;;26.11;41.75;99071.02;435789;1251;138364;-62
2023/08/04 16:35:49;;;;;;;2.40;0.40;;;;;;;25.91;42.28;99071.00;435972;1253;138395;-64
2023/08/04 16:45:57;;;;;;;3.00;0.70;;;;;;;25.70;43.14;99073.13;435946;1250;138889;-63
2023/08/04 16:56:05;;;;;;;7.00;0.80;;;;;;;25.63;43.73;99058.14;435956;1253;140147;-64
2023/08/04 17:06:14;;;;;;;9.80;1.30;;;;;;;25.73;43.68;99060.33;436591;1251;141859;-64
2023/08/04 17:16:20;;;;;;;2.30;1.30;;;;;;;25.57;43.63;99081.83;436270;1250;138976;-64
2023/08/04 17:26:26;;;;;;;4.60;1.40;;;;;;;25.19;43.68;99081.88;436020;1250;138960;-64
2023/08/04 17:36:34;;;;;;;4.10;1.60;;;;;;;24.74;44.36;99092.88;437362;1250;138849;-65
2023/08/04 17:46:39;;;;;;;3.90;0.80;;;;;;;24.24;45.74;99097.70;436013;1253;138584;-65
2023/08/04 17:56:45;;;;;;;4.80;1.70;;;;;;;23.86;46.73;99106.58;436452;1250;138955;-66
2023/08/04 18:06:52;;;;;;;3.40;1.90;;;;;;;23.55;47.66;99112.10;435561;1253;138849;-64
2023/08/04 18:16:58;;;;;;;3.30;0.80;;;;;;;23.23;48.12;99114.98;435653;1250;139739;-65
2023/08/04 18:27:04;;;;;;;4.40;0.90;;;;;;;22.94;48.74;99130.64;436007;1251;139505;-65
2023/08/04 18:37:10;;;;;;;6.60;1.30;;;;;;;22.70;49.30;99123.42;436305;1253;138513;-64
2023/08/04 18:47:16;;;;;;;1.70;1.30;;;;;;;22.46;50.85;99121.40;436136;1251;139478;-63
2023/08/04 18:57:22;;;;;;;4.80;1.30;;;;;;;22.18;52.09;99140.34;435721;1253;139498;-62
2023/08/04 19:07:28;;;;;;;4.80;2.40;;;;;;;21.95;53.25;99152.73;435545;1253;139064;-63
2023/08/04 19:17:33;;;;;;;5.60;2.30;;;;;;;21.74;54.30;99175.64;436030;1251;139800;-62
2023/08/04 19:27:39;;;;;;;4.90;2.50;;;;;;;21.52;54.64;99162.03;436136;1253;139716;-64
2023/08/04 19:37:45;;;;;;;6.20;3.10;;;;;;;21.37;55.60;99152.84;436150;1251;152112;-63
2023/08/04 19:47:51;;;;;;;9.70;3.70;;;;;;;21.26;57.13;99188.70;436082;1253;138971;-62
2023/08/04 19:57:57;;;;;;;9.10;4.60;;;;;;;21.08;58.17;99206.73;435741;1251;138792;-62
2023/08/04 20:08:03;;;;;;;7.60;4.30;;;;;;;20.87;58.84;99182.24;435903;1253;138670;-64
2023/08/04 20:18:08;;;;;;;12.20;6.20;;;;;;;20.74;59.23;99181.56;435881;1253;139915;-62
2023/08/04 20:28:14;;;;;;;13.10;9.10;;;;;;;20.68;59.90;99220.14;435701;1253;139441;-63
2023/08/04 20:38:21;;;;;;;19.80;11.40;;;;;;;20.58;60.07;99203.23;436075;1253;139674;-63
2023/08/04 20:48:27;;;;;;;16.80;12.30;;;;;;;20.52;60.91;99212.63;435980;1252;141240;-63
2023/08/04 20:58:37;;;;;;;12.20;9.70;;;;;;;20.43;61.73;99201.23;435883;1253;140794;-63
2023/08/04 21:08:43;;;;;;;12.50;6.60;;;;;;;20.33;62.77;99214.55;436988;1253;139490;-62
2023/08/04 21:18:49;;;;;;;11.80;5.50;;;;;;;20.27;62.90;99195.11;435942;1251;139648;-62
2023/08/04 21:28:54;;;;;;;5.20;3.70;;;;;;;20.25;63.27;99189.25;435730;1251;140055;-62
2023/08/04 21:39:00;;;;;;;8.50;3.20;;;;;;;20.20;64.17;99200.33;435876;1253;139177;-63
2023/08/04 21:49:06;;;;;;;6.10;3.90;;;;;;;20.11;65.17;99195.52;435869;1250;139570;-63
2023/08/04 21:59:13;;;;;;;7.20;4.40;;;;;;;20.02;65.39;99196.44;435776;1253;139824;-62
2023/08/04 22:09:19;;;;;;;8.10;5.20;;;;;;;19.95;65.99;99210.66;435731;1251;140323;-62
2023/08/04 22:19:25;;;;;;;10.10;4.00;;;;;;;19.91;66.98;99215.77;436210;1250;139327;-69
2023/08/04 22:29:31;;;;;;;8.30;4.00;;;;;;;19.84;67.74;99222.38;436206;1250;141482;-67
2023/08/04 22:39:36;;;;;;;9.40;3.90;;;;;;;19.74;68.40;99226.31;436113;1250;140278;-69
2023/08/04 22:49:42;;;;;;;6.40;4.30;;;;;;;19.68;68.88;99222.31;438428;1250;139721;-72
2023/08/04 22:59:48;;;;;;;5.70;3.40;;;;;;;19.59;69.79;99225.20;439821;1253;140416;-75
2023/08/04 23:09:54;;;;;;;7.50;3.40;;;;;;;19.54;69.39;99221.18;437265;1253;141270;-70
2023/08/04 23:20:00;;;;;;;4.50;3.70;;;;;;;19.55;69.06;99214.95;436545;1253;139592;-75
2023/08/04 23:30:18;;;;;;;6.60;3.20;;;;;;;19.53;70.29;99214.02;440261;1251;139575;-74
2023/08/04 23:40:28;;;;;;;5.30;3.40;;;;;;;19.49;70.43;99204.50;438470;1250;138971;-80
2023/08/04 23:50:34;;;;;;;4.00;2.40;;;;;;;19.45;70.61;99197.27;439491;1250;140181;-75
